Time;durP1;ratioP1;P1;durP2;ratioP2;P2;SDS_P1;SDS_P2;PMS_P1;PMS_P2;Temp;Humidity;BMP_temperature;BMP_pressure;BME280_temperature;BME280_humidity;BME280_pressure;Samples;Min_cycle;Max_cycle;Signal;HPM_P1;HPM_P2
2021/03/31 00:00:49;;;;;;;10.05;4.15;;;4.70;99.90;;;;;;6097075;23;20002;-73
2021/03/31 00:03:19;;;;;;;8.27;4.03;;;4.60;99.90;;;;;;6097681;23;20061;-73
2021/03/31 00:05:45;;;;;;;9.68;4.10;;;4.50;99.90;;;;;;6072208;23;20504;-73
2021/03/31 00:08:11;;;;;;;10.90;4.38;;;4.50;99.90;;;;;;6099401;23;19999;-72
2021/03/31 00:10:47;;;;;;;6.50;4.88;;;4.40;99.90;;;;;;6099086;23;20014;-73
2021/03/31 00:13:13;;;;;;;8.10;4.03;;;4.40;99.90;;;;;;6099588;23;20095;-73
2021/03/31 00:15:39;;;;;;;6.72;4.28;;;4.40;99.90;;;;;;6099505;23;20128;-73
2021/03/31 00:18:10;;;;;;;5.85;4.10;;;4.30;99.90;;;;;;6099890;23;20005;-73
2021/03/31 00:20:37;;;;;;;8.15;5.20;;;4.40;99.90;;;;;;6099579;23;20007;-73
2021/03/31 00:23:11;;;;;;;8.45;5.00;;;4.50;99.90;;;;;;6073793;23;20006;-73
2021/03/31 00:25:37;;;;;;;7.32;4.55;;;4.40;99.90;;;;;;6099062;23;20007;-73
2021/03/31 00:28:04;;;;;;;8.70;5.38;;;4.40;99.90;;;;;;6099550;23;20009;-73
2021/03/31 00:30:30;;;;;;;8.02;4.40;;;4.30;99.90;;;;;;6098943;23;20014;-73
2021/03/31 00:32:56;;;;;;;8.52;4.43;;;4.20;99.90;;;;;;6099845;23;20306;-73
2021/03/31 00:35:22;;;;;;;6.05;4.63;;;4.20;99.90;;;;;;6099325;23;20010;-73
2021/03/31 00:37:48;;;;;;;7.65;4.90;;;4.20;99.90;;;;;;6099020;23;20009;-73
2021/03/31 00:40:17;;;;;;;9.10;4.43;;;4.20;99.90;;;;;;6098741;23;20434;-73
2021/03/31 00:42:44;;;;;;;6.38;4.13;;;4.20;99.90;;;;;;6099826;23;20010;-73
2021/03/31 00:45:11;;;;;;;6.78;4.45;;;4.10;99.90;;;;;;6099288;23;20008;-73
2021/03/31 00:47:37;;;;;;;9.88;4.38;;;4.10;99.90;;;;;;6098784;23;20006;-73
2021/03/31 00:50:06;;;;;;;7.45;4.22;;;3.90;99.90;;;;;;6098656;23;20042;-73
2021/03/31 00:52:32;;;;;;;6.32;4.43;;;3.90;99.90;;;;;;6098991;23;20006;-73
2021/03/31 00:54:58;;;;;;;6.57;4.18;;;3.90;99.90;;;;;;6099072;23;20010;-73
2021/03/31 00:57:24;;;;;;;6.50;4.00;;;3.90;99.90;;;;;;6098715;23;20014;-73
2021/03/31 00:59:51;;;;;;;6.43;3.75;;;3.90;99.90;;;;;;6099125;23;20006;-73
2021/03/31 01:02:16;;;;;;;6.20;3.85;;;3.90;99.90;;;;;;6098872;23;20073;-73
2021/03/31 01:04:42;;;;;;;4.82;3.53;;;3.90;99.90;;;;;;6098429;23;20014;-73
2021/03/31 01:07:08;;;;;;;6.72;4.53;;;3.90;99.90;;;;;;6098598;23;20009;-73
2021/03/31 01:09:35;;;;;;;8.48;4.07;;;3.90;99.90;;;;;;6099034;23;20010;-73
2021/03/31 01:12:23;;;;;;;8.15;4.05;;;3.90;99.90;;;;;;6098940;23;20002;-73
2021/03/31 01:15:11;;;;;;;6.68;3.92;;;3.80;99.90;;;;;;6098645;23;20002;-73
2021/03/31 01:17:48;;;;;;;6.75;4.35;;;3.80;99.90;;;;;;6098906;23;20074;-73
2021/03/31 01:20:47;;;;;;;6.05;3.88;;;3.60;99.90;;;;;;6098682;23;20033;-73
2021/03/31 01:23:35;;;;;;;7.22;4.25;;;3.60;99.90;;;;;;6099114;23;20032;-73
2021/03/31 01:26:14;;;;;;;9.88;4.60;;;3.50;99.90;;;;;;6098576;23;20002;-72
2021/03/31 01:28:51;;;;;;;6.43;4.50;;;3.50;99.90;;;;;;6098835;23;20009;-73
2021/03/31 01:31:28;;;;;;;7.45;4.85;;;3.60;99.90;;;;;;6098902;23;20030;-73
2021/03/31 01:34:09;;;;;;;9.18;4.18;;;3.50;99.90;;;;;;6098139;23;20010;-73
2021/03/31 01:36:36;;;;;;;7.15;4.10;;;3.40;99.90;;;;;;6098537;23;20033;-73
2021/03/31 01:39:06;;;;;;;8.70;4.63;;;3.40;99.90;;;;;;6099137;23;20002;-73
2021/03/31 01:41:35;;;;;;;8.10;3.72;;;3.30;99.90;;;;;;6098549;23;20003;-73
2021/03/31 01:44:02;;;;;;;7.70;4.22;;;3.30;99.90;;;;;;6098488;23;20010;-73
2021/03/31 01:46:34;;;;;;;7.18;4.45;;;3.30;99.90;;;;;;6098572;23;20077;-73
2021/03/31 01:49:02;;;;;;;6.43;4.30;;;3.20;99.90;;;;;;6098594;23;20073;-73
2021/03/31 01:51:30;;;;;;;6.72;4.05;;;3.30;99.90;;;;;;6098533;23;20009;-73
2021/03/31 01:53:58;;;;;;;7.45;4.40;;;3.20;99.90;;;;;;6098518;23;20074;-73
2021/03/31 01:56:29;;;;;;;7.35;4.10;;;3.20;99.90;;;;;;6098542;23;20104;-73
2021/03/31 01:58:56;;;;;;;6.97;4.60;;;3.10;99.90;;;;;;6098810;23;20017;-73
2021/03/31 02:01:22;;;;;;;6.57;4.25;;;3.20;99.90;;;;;;6072581;23;20022;-73
2021/03/31 02:03:52;;;;;;;6.43;4.40;;;3.10;99.90;;;;;;6097789;23;20053;-73
2021/03/31 02:06:19;;;;;;;8.30;4.85;;;3.20;99.90;;;;;;6073270;23;20010;-73
2021/03/31 02:08:47;;;;;;;6.45;4.15;;;3.10;99.90;;;;;;6098274;23;20006;-73
2021/03/31 02:11:14;;;;;;;6.53;4.38;;;3.10;99.90;;;;;;6098040;23;20065;-73
2021/03/31 02:13:40;;;;;;;5.43;3.70;;;3.00;99.90;;;;;;6098614;23;20061;-73
2021/03/31 02:16:09;;;;;;;4.90;4.20;;;3.00;99.90;;;;;;6072810;23;20081;-73
2021/03/31 02:18:36;;;;;;;7.15;4.05;;;3.00;99.90;;;;;;6098152;23;20006;-73
2021/03/31 02:21:03;;;;;;;8.75;4.47;;;2.90;99.90;;;;;;6097928;23;20006;-73
2021/03/31 02:23:34;;;;;;;7.88;4.28;;;2.90;99.90;;;;;;6097771;23;20065;-73
2021/03/31 02:26:00;;;;;;;9.15;4.35;;;3.00;99.90;;;;;;6098158;23;20010;-73
2021/03/31 02:28:26;;;;;;;8.50;4.57;;;2.80;99.90;;;;;;6098313;23;20054;-73
2021/03/31 02:30:51;;;;;;;5.22;4.47;;;2.70;99.90;;;;;;6097851;23;20006;-73
2021/03/31 02:33:19;;;;;;;6.88;4.45;;;2.70;99.90;;;;;;6097981;23;20053;-73
2021/03/31 02:35:45;;;;;;;7.68;4.38;;;2.70;99.90;;;;;;6098115;23;20010;-72
2021/03/31 02:38:15;;;;;;;6.60;4.03;;;2.70;99.90;;;;;;6098826;23;20012;-73
2021/03/31 02:40:45;;;;;;;5.55;4.15;;;2.80;99.90;;;;;;6098172;23;20002;-73
2021/03/31 02:43:13;;;;;;;6.53;4.90;;;2.80;99.90;;;;;;6097938;23;20010;-73
2021/03/31 02:45:40;;;;;;;7.25;4.18;;;2.80;99.90;;;;;;6097666;23;20061;-73
2021/03/31 02:48:08;;;;;;;7.82;4.80;;;2.80;99.90;;;;;;6097709;23;20401;-72
2021/03/31 02:50:36;;;;;;;8.15;4.28;;;2.70;99.90;;;;;;6097980;23;20006;-73
2021/03/31 02:53:02;;;;;;;7.18;4.50;;;2.70;99.90;;;;;;6097954;23;20006;-73
2021/03/31 02:55:28;;;;;;;6.47;4.25;;;2.60;99.90;;;;;;6098056;23;20002;-72
2021/03/31 02:57:56;;;;;;;6.40;4.30;;;2.60;99.90;;;;;;6098319;23;20461;-73
2021/03/31 03:00:23;;;;;;;5.63;4.50;;;2.60;99.90;;;;;;6097646;23;20002;-73
2021/03/31 03:02:49;;;;;;;7.28;4.18;;;2.60;99.90;;;;;;6097178;23;20018;-73
2021/03/31 03:05:18;;;;;;;6.03;3.80;;;2.60;99.90;;;;;;6097949;23;20007;-72
2021/03/31 03:07:44;;;;;;;6.47;4.43;;;2.60;99.90;;;;;;6097961;23;20006;-73
2021/03/31 03:10:11;;;;;;;8.05;4.60;;;2.40;99.90;;;;;;6098175;23;20002;-72
2021/03/31 03:12:50;;;;;;;7.30;4.63;;;2.50;99.90;;;;;;6098233;23;20013;-73
2021/03/31 03:15:18;;;;;;;6.90;4.38;;;2.50;99.90;;;;;;6072332;23;20137;-72
2021/03/31 03:17:45;;;;;;;6.97;4.55;;;2.30;99.90;;;;;;6097671;23;20010;-73
2021/03/31 03:20:12;;;;;;;8.52;4.70;;;2.40;99.90;;;;;;6098028;23;20002;-73
2021/03/31 03:22:40;;;;;;;6.45;4.63;;;2.40;99.90;;;;;;6072115;23;20050;-73
2021/03/31 03:25:11;;;;;;;7.93;4.50;;;2.20;99.90;;;;;;6097491;23;20010;-73
2021/03/31 03:27:41;;;;;;;10.10;4.38;;;2.30;99.90;;;;;;6097693;23;20069;-73
2021/03/31 03:30:14;;;;;;;5.15;3.85;;;2.30;99.90;;;;;;6097505;23;20013;-72
2021/03/31 03:32:41;;;;;;;6.72;4.15;;;2.10;99.90;;;;;;6098387;23;20041;-72
2021/03/31 03:35:15;;;;;;;9.63;4.95;;;2.20;99.90;;;;;;6097471;23;20026;-73
2021/03/31 03:37:47;;;;;;;5.85;3.95;;;2.20;99.90;;;;;;6098570;23;20061;-73
2021/03/31 03:40:15;;;;;;;8.02;4.60;;;2.10;99.90;;;;;;6098193;23;20078;-72
2021/03/31 03:42:41;;;;;;;9.48;4.97;;;2.20;99.90;;;;;;6099663;23;20010;-73
2021/03/31 03:45:07;;;;;;;8.10;4.40;;;2.20;99.90;;;;;;6099468;23;20085;-73
2021/03/31 03:47:34;;;;;;;6.93;4.53;;;2.20;99.90;;;;;;6074167;23;20003;-72
2021/03/31 03:50:01;;;;;;;8.52;4.25;;;2.20;99.90;;;;;;6099615;23;20011;-73
2021/03/31 03:52:28;;;;;;;9.60;5.05;;;2.20;99.90;;;;;;6099380;23;20335;-73
2021/03/31 03:54:55;;;;;;;4.97;4.13;;;2.10;99.90;;;;;;6099138;23;20010;-73
2021/03/31 03:57:28;;;;;;;6.85;4.68;;;2.10;99.90;;;;;;6099357;23;20006;-73
2021/03/31 03:59:55;;;;;;;10.70;5.30;;;2.10;99.90;;;;;;6099673;23;20136;-72
2021/03/31 04:02:21;;;;;;;6.80;4.70;;;2.10;99.90;;;;;;6099345;23;20019;-73
2021/03/31 04:04:49;;;;;;;7.50;4.32;;;2.00;99.90;;;;;;6098960;23;20061;-72
2021/03/31 04:07:15;;;;;;;8.77;5.30;;;1.90;99.90;;;;;;6099503;23;20011;-73
2021/03/31 04:09:44;;;;;;;9.18;4.55;;;1.90;99.90;;;;;;6099888;23;20010;-72
2021/03/31 04:12:11;;;;;;;7.60;4.55;;;1.90;99.90;;;;;;6099122;23;20010;-73
2021/03/31 04:14:41;;;;;;;7.13;4.63;;;1.80;99.90;;;;;;6073906;23;20011;-72
2021/03/31 04:17:11;;;;;;;7.75;4.72;;;1.80;99.90;;;;;;6099461;23;20422;-72
2021/03/31 04:19:38;;;;;;;7.30;4.72;;;1.90;99.90;;;;;;6073639;23;20006;-72
2021/03/31 04:22:05;;;;;;;9.07;4.15;;;1.80;99.90;;;;;;6099439;23;20002;-72
2021/03/31 04:24:32;;;;;;;5.20;4.03;;;1.80;99.90;;;;;;6099326;23;20442;-73
2021/03/31 04:27:00;;;;;;;7.32;4.13;;;1.80;99.90;;;;;;6099257;23;20097;-72
2021/03/31 04:29:28;;;;;;;7.20;5.05;;;1.80;99.90;;;;;;6099468;23;20007;-73
2021/03/31 04:31:54;;;;;;;7.50;4.55;;;1.80;99.90;;;;;;6098923;23;20060;-72
2021/03/31 04:34:21;;;;;;;7.18;4.78;;;1.80;99.90;;;;;;6073426;23;20014;-72
2021/03/31 04:36:47;;;;;;;8.18;5.00;;;1.70;99.90;;;;;;6099031;23;20002;-73
2021/03/31 04:39:15;;;;;;;8.05;5.03;;;1.60;99.90;;;;;;6098833;23;20014;-73
2021/03/31 04:41:41;;;;;;;9.70;4.97;;;1.60;99.90;;;;;;6071771;23;20006;-75
2021/03/31 04:44:07;;;;;;;7.75;4.63;;;1.60;99.90;;;;;;6096676;23;20036;-74
2021/03/31 04:46:33;;;;;;;9.50;5.10;;;1.50;99.90;;;;;;6098684;23;20006;-75
2021/03/31 04:49:00;;;;;;;7.35;4.72;;;1.60;99.90;;;;;;6098821;23;20398;-75
2021/03/31 04:51:26;;;;;;;6.68;4.63;;;1.60;99.90;;;;;;6073452;23;20002;-75
2021/03/31 04:53:52;;;;;;;10.73;4.28;;;1.60;99.90;;;;;;6099030;23;20010;-75
2021/03/31 04:56:17;;;;;;;7.05;4.40;;;1.60;99.90;;;;;;6099056;23;20010;-75
2021/03/31 04:58:44;;;;;;;8.98;4.70;;;1.60;99.90;;;;;;6099440;23;20010;-75
2021/03/31 05:01:09;;;;;;;7.60;4.43;;;1.60;99.90;;;;;;6099122;23;20097;-75
2021/03/31 05:03:35;;;;;;;9.50;5.80;;;1.40;99.90;;;;;;6073125;23;20379;-75
2021/03/31 05:06:01;;;;;;;11.43;6.00;;;1.50;99.90;;;;;;6073397;23;20009;-75
2021/03/31 05:08:27;;;;;;;11.35;7.63;;;1.40;99.90;;;;;;6073115;23;20006;-75
2021/03/31 05:10:53;;;;;;;8.73;5.80;;;1.50;99.90;;;;;;6073224;23;20005;-74
2021/03/31 05:13:19;;;;;;;6.40;4.75;;;1.50;99.90;;;;;;6073400;23;20398;-74
2021/03/31 05:15:45;;;;;;;7.35;5.50;;;1.40;99.90;;;;;;6098521;23;20450;-74
2021/03/31 05:18:11;;;;;;;11.82;6.72;;;1.30;99.90;;;;;;6072832;23;20013;-75
2021/03/31 05:20:37;;;;;;;13.63;5.80;;;1.40;99.90;;;;;;6098400;23;20002;-75
2021/03/31 05:23:03;;;;;;;13.60;6.82;;;1.40;99.90;;;;;;6073128;23;20070;-74
2021/03/31 05:25:29;;;;;;;14.35;6.50;;;1.40;99.90;;;;;;6073215;23;20042;-74
2021/03/31 05:27:55;;;;;;;7.95;5.25;;;1.50;99.90;;;;;;6074201;23;20010;-74
2021/03/31 05:30:22;;;;;;;17.00;9.52;;;1.60;99.90;;;;;;6072731;23;20085;-74
2021/03/31 05:32:48;;;;;;;15.75;8.77;;;1.60;99.90;;;;;;6098390;23;20010;-74
2021/03/31 05:35:14;;;;;;;9.63;6.20;;;1.50;99.90;;;;;;6073136;23;20077;-74
2021/03/31 05:37:40;;;;;;;17.83;7.85;;;1.60;99.90;;;;;;6073443;23;20081;-75
2021/03/31 05:40:07;;;;;;;10.63;6.20;;;1.70;99.90;;;;;;6072841;23;20002;-75
2021/03/31 05:42:33;;;;;;;9.60;5.97;;;1.60;99.90;;;;;;6072991;23;20013;-75
2021/03/31 05:45:27;;;;;;;9.00;6.38;;;1.60;99.90;;;;;;6071788;23;20354;-75
2021/03/31 05:47:57;;;;;;;11.95;5.25;;;1.60;99.90;;;;;;6065460;23;20132;-75
2021/03/31 05:50:35;;;;;;;7.15;4.82;;;1.70;99.90;;;;;;6070254;23;20469;-75
2021/03/31 05:53:01;;;;;;;9.90;5.63;;;1.70;99.90;;;;;;6072191;23;20006;-75
2021/03/31 05:55:30;;;;;;;9.55;5.05;;;1.70;99.90;;;;;;6073005;23;20477;-75
2021/03/31 05:57:57;;;;;;;6.35;4.65;;;1.60;99.90;;;;;;6097842;23;20003;-75
2021/03/31 06:00:25;;;;;;;6.93;5.10;;;1.70;99.90;;;;;;6095592;23;20013;-74
2021/03/31 06:02:51;;;;;;;7.32;4.50;;;1.70;99.90;;;;;;6069378;23;20018;-75
2021/03/31 06:05:21;;;;;;;8.05;5.20;;;1.80;99.90;;;;;;6070667;23;20014;-75
2021/03/31 06:07:49;;;;;;;8.52;5.78;;;1.80;99.90;;;;;;6072776;23;20029;-74
2021/03/31 06:10:17;;;;;;;6.95;4.60;;;1.90;99.90;;;;;;6071992;23;20041;-75
2021/03/31 06:12:58;;;;;;;10.38;4.90;;;2.00;99.90;;;;;;6071863;23;20017;-75
2021/03/31 06:15:58;;;;;;;8.05;4.13;;;2.40;99.90;;;;;;6069723;23;20041;-75
2021/03/31 06:18:24;;;;;;;8.18;4.20;;;3.00;99.90;;;;;;6069336;23;20461;-74
2021/03/31 06:21:05;;;;;;;7.43;4.68;;;4.00;99.90;;;;;;6095808;23;20077;-74
2021/03/31 06:30:40;;;;;;;4.97;3.90;;;5.40;99.90;;;;;;5871388;24;20447;-76
2021/03/31 06:36:48;;;;;;;5.60;4.47;;;4.40;99.90;;;;;;5871070;24;20021;-77
2021/03/31 07:39:44;;;;;;;8.98;6.25;;;5.30;99.90;;;;;;6061508;23;20030;-76
2021/03/31 07:55:54;;;;;;;6.37;5.00;;;6.30;99.90;;;;;;6067617;23;21215;-75
2021/03/31 07:58:49;;;;;;;9.63;4.95;;;6.40;99.90;;;;;;6042351;23;20021;-76
2021/03/31 08:05:20;;;;;;;7.30;3.47;;;6.70;99.90;;;;;;6061428;23;20410;-78
2021/03/31 08:17:54;;;;;;;41.65;4.93;;;7.80;99.90;;;;;;5978494;23;20064;-74
2021/03/31 08:20:24;;;;;;;50.15;6.22;;;7.80;99.90;;;;;;5993662;23;20041;-75
2021/03/31 08:22:49;;;;;;;52.85;5.68;;;8.10;99.90;;;;;;6042379;23;20011;-75
2021/03/31 08:25:24;;;;;;;43.50;4.82;;;8.30;99.90;;;;;;6042993;23;19999;-74
2021/03/31 08:28:01;;;;;;;42.08;4.45;;;8.60;99.90;;;;;;6044626;23;20003;-74
2021/03/31 08:30:28;;;;;;;27.35;4.10;;;8.70;99.90;;;;;;6070552;23;20003;-74
2021/03/31 08:32:55;;;;;;;35.10;5.00;;;8.80;99.90;;;;;;6070019;23;20011;-74
2021/03/31 08:35:23;;;;;;;16.85;3.67;;;8.90;99.90;;;;;;6068093;23;20042;-77
2021/03/31 08:37:50;;;;;;;21.77;3.90;;;9.20;99.90;;;;;;6042718;23;20011;-74
2021/03/31 08:40:17;;;;;;;10.10;2.72;;;9.30;99.90;;;;;;6069726;23;20435;-75
2021/03/31 08:42:52;;;;;;;16.83;4.00;;;9.40;99.90;;;;;;6044546;23;20042;-74
2021/03/31 08:45:33;;;;;;;16.13;3.08;;;9.60;99.30;;;;;;6070394;23;20014;-74
2021/03/31 08:48:00;;;;;;;9.30;2.65;;;9.90;99.00;;;;;;6068475;23;20007;-75
2021/03/31 08:50:33;;;;;;;11.32;3.10;;;10.20;95.20;;;;;;6067506;23;20007;-74
2021/03/31 08:53:10;;;;;;;5.13;2.45;;;10.40;93.80;;;;;;6069465;23;20078;-74
2021/03/31 08:55:39;;;;;;;8.02;2.53;;;10.90;91.20;;;;;;6069376;23;20018;-74
2021/03/31 08:58:11;;;;;;;6.65;3.28;;;11.10;91.60;;;;;;6044468;23;20082;-75
2021/03/31 09:00:44;;;;;;;5.03;2.33;;;11.30;88.60;;;;;;6043586;23;20432;-74
2021/03/31 09:03:10;;;;;;;7.50;2.30;;;11.70;87.40;;;;;;6068879;23;20015;-74
2021/03/31 09:05:36;;;;;;;7.50;2.50;;;12.00;83.80;;;;;;6068259;23;20007;-74
2021/03/31 09:08:02;;;;;;;6.50;2.08;;;12.30;83.20;;;;;;6067629;23;20011;-75
2021/03/31 09:10:29;;;;;;;7.82;2.78;;;12.40;81.10;;;;;;6068003;23;20003;-74
2021/03/31 09:12:55;;;;;;;6.90;2.28;;;12.60;79.00;;;;;;6069713;23;20017;-74
2021/03/31 09:15:22;;;;;;;4.25;1.95;;;12.70;78.90;;;;;;6069682;23;20010;-74
2021/03/31 09:17:55;;;;;;;4.43;2.00;;;12.80;76.70;;;;;;6069509;23;20062;-74
2021/03/31 09:20:21;;;;;;;4.20;2.10;;;12.80;75.60;;;;;;6069801;23;19999;-75
2021/03/31 09:22:47;;;;;;;4.43;1.77;;;12.80;77.30;;;;;;6069282;23;20014;-74
2021/03/31 09:25:14;;;;;;;6.60;2.03;;;12.90;74.40;;;;;;6069794;23;20007;-74
2021/03/31 09:27:41;;;;;;;4.35;2.60;;;13.00;74.00;;;;;;6045128;23;20003;-75
2021/03/31 09:30:12;;;;;;;5.60;1.83;;;12.90;75.80;;;;;;6069635;23;20331;-74
2021/03/31 09:32:44;;;;;;;5.22;2.22;;;13.10;72.10;;;;;;6070190;23;20078;-74
2021/03/31 09:35:15;;;;;;;6.65;1.77;;;13.10;74.30;;;;;;6069404;23;20091;-74
2021/03/31 09:37:50;;;;;;;6.15;2.08;;;13.40;70.70;;;;;;6043926;23;20435;-74
2021/03/31 09:40:28;;;;;;;9.55;2.33;;;13.20;71.00;;;;;;6043651;23;20014;-74
2021/03/31 09:43:02;;;;;;;6.43;2.30;;;13.10;69.80;;;;;;6070043;23;20432;-74
2021/03/31 09:45:30;;;;;;;5.47;2.38;;;13.20;70.80;;;;;;6069758;23;20002;-75
2021/03/31 09:47:58;;;;;;;6.93;2.10;;;13.20;74.30;;;;;;6068922;23;20007;-74
2021/03/31 09:50:25;;;;;;;5.78;2.53;;;13.40;68.90;;;;;;6043763;23;20014;-75
2021/03/31 09:52:55;;;;;;;9.43;2.33;;;13.40;69.40;;;;;;6069735;23;20007;-74
2021/03/31 09:55:23;;;;;;;8.32;2.35;;;13.40;71.80;;;;;;6043122;23;20007;-74
2021/03/31 09:57:51;;;;;;;5.85;2.00;;;13.30;71.40;;;;;;6042437;23;20026;-74
2021/03/31 10:00:18;;;;;;;5.05;1.73;;;13.70;67.10;;;;;;6067460;23;20070;-75
2021/03/31 10:02:46;;;;;;;4.55;1.73;;;13.40;68.60;;;;;;6067788;23;20014;-74
2021/03/31 10:05:24;;;;;;;4.65;2.00;;;13.80;66.10;;;;;;6068770;23;20018;-75
2021/03/31 10:08:04;;;;;;;3.20;1.38;;;13.80;65.20;;;;;;6069177;23;20088;-74
2021/03/31 10:10:54;;;;;;;2.58;1.90;;;13.90;65.30;;;;;;6069774;23;20003;-74
2021/03/31 10:13:25;;;;;;;7.90;2.03;;;14.10;64.30;;;;;;6067613;23;20447;-75
2021/03/31 10:15:55;;;;;;;;;;;14.10;65.20;;;;;;6069298;23;20002;-74
2021/03/31 10:18:21;;;;;;;5.55;1.90;;;14.20;61.90;;;;;;6066983;23;19909;-72
2021/03/31 10:20:48;;;;;;;2.65;1.60;;;14.50;60.10;;;;;;6069102;23;20033;-74
2021/03/31 10:23:34;;;;;;;6.70;1.98;;;14.60;59.00;;;;;;6069367;23;20017;-74
2021/03/31 10:26:24;;;;;;;4.22;1.63;;;14.40;60.40;;;;;;6043591;23;20404;-74
2021/03/31 10:28:51;;;;;;;3.78;1.70;;;14.60;55.80;;;;;;6069477;23;19999;-74
2021/03/31 10:31:31;;;;;;;4.22;1.70;;;14.40;56.70;;;;;;6069416;23;20006;-74
2021/03/31 10:33:58;;;;;;;4.88;1.55;;;14.70;57.20;;;;;;6068753;23;20007;-74
2021/03/31 10:37:17;;;;;;;5.07;1.80;;;14.40;59.00;;;;;;6069077;23;20003;-74
2021/03/31 10:56:25;;;;;;;4.32;1.80;;;15.20;52.00;;;;;;6058615;23;20023;-75
2021/03/31 10:58:51;;;;;;;6.15;1.90;;;14.90;54.30;;;;;;6040030;23;20019;-72
2021/03/31 11:01:17;;;;;;;1.98;1.52;;;15.10;55.20;;;;;;6040299;23;20014;-74
2021/03/31 11:03:43;;;;;;;3.58;1.70;;;15.20;50.60;;;;;;6039074;23;20348;-75
2021/03/31 11:06:09;;;;;;;3.28;1.95;;;15.30;51.90;;;;;;6039592;23;20092;-76
2021/03/31 11:08:35;;;;;;;2.38;1.40;;;15.50;48.10;;;;;;6040454;23;20010;-75
2021/03/31 11:11:01;;;;;;;3.85;2.20;;;15.50;46.30;;;;;;6040026;23;20086;-75
2021/03/31 11:13:27;;;;;;;3.58;2.00;;;15.50;48.60;;;;;;6040018;23;20014;-75
2021/03/31 11:15:54;;;;;;;3.83;2.25;;;15.20;49.90;;;;;;6038868;23;20082;-75
2021/03/31 11:26:08;;;;;;;2.65;1.40;;;15.80;45.10;;;;;;6039781;23;20058;-76
2021/03/31 11:28:37;;;;;;;3.20;1.83;;;15.70;41.80;;;;;;6040561;23;20364;-76
2021/03/31 11:31:04;;;;;;;6.93;2.30;;;15.70;43.30;;;;;;6040438;23;20008;-76
2021/03/31 11:33:30;;;;;;;4.55;1.77;;;15.70;44.10;;;;;;6040135;23;20063;-76
2021/03/31 11:35:56;;;;;;;3.80;1.45;;;15.70;43.10;;;;;;6039150;23;20011;-76
2021/03/31 11:38:23;;;;;;;2.15;1.50;;;15.80;42.30;;;;;;6040393;23;20305;-76
2021/03/31 11:40:49;;;;;;;4.47;1.30;;;16.00;42.40;;;;;;6038202;23;20039;-75
2021/03/31 11:43:17;;;;;;;3.70;1.80;;;15.90;42.60;;;;;;6003175;23;20023;-74
2021/03/31 11:45:43;;;;;;;3.80;1.80;;;15.70;45.00;;;;;;6015633;23;20008;-75
2021/03/31 11:48:10;;;;;;;3.55;1.58;;;16.00;43.80;;;;;;6003368;23;20202;-74
2021/03/31 11:50:36;;;;;;;4.03;2.10;;;16.00;43.70;;;;;;6008315;23;20232;-74
2021/03/31 11:53:03;;;;;;;3.70;1.30;;;16.10;43.60;;;;;;6032812;23;20365;-72
2021/03/31 11:55:29;;;;;;;6.40;1.42;;;16.20;42.20;;;;;;6035177;23;20015;-71
2021/03/31 11:57:57;;;;;;;7.88;1.80;;;16.20;43.30;;;;;;6062660;23;20138;-71
2021/03/31 12:00:24;;;;;;;5.65;1.80;;;16.10;43.10;;;;;;6039642;23;20003;-71
2021/03/31 12:02:50;;;;;;;6.28;1.80;;;16.20;43.10;;;;;;6066890;23;20015;-72
2021/03/31 12:05:17;;;;;;;4.32;1.77;;;16.30;42.90;;;;;;6068187;23;20078;-74
2021/03/31 12:07:43;;;;;;;5.88;2.20;;;16.20;42.20;;;;;;6067137;23;20030;-74
2021/03/31 12:10:10;;;;;;;7.88;2.15;;;16.30;43.60;;;;;;6068026;23;20506;-74
2021/03/31 12:12:38;;;;;;;6.63;2.38;;;16.30;44.60;;;;;;6056601;23;20022;-72
2021/03/31 12:15:06;;;;;;;10.75;2.00;;;16.30;43.20;;;;;;6065452;23;20007;-72
2021/03/31 12:17:33;;;;;;;14.13;3.67;;;16.50;41.70;;;;;;6067255;23;20010;-72
2021/03/31 12:19:58;;;;;;;4.80;2.45;;;16.50;44.10;;;;;;6042447;23;20014;-74
2021/03/31 12:22:24;;;;;;;3.97;1.85;;;16.50;43.70;;;;;;6055456;23;20069;-71
2021/03/31 12:24:51;;;;;;;5.05;1.90;;;16.40;44.60;;;;;;6065735;23;20040;-74
2021/03/31 12:27:20;;;;;;;6.32;2.15;;;16.20;44.90;;;;;;6067604;23;20077;-74
2021/03/31 12:29:46;;;;;;;3.47;2.03;;;16.50;44.80;;;;;;6068006;23;20030;-73
2021/03/31 12:32:14;;;;;;;5.63;2.03;;;16.50;45.70;;;;;;6068251;23;20013;-74
2021/03/31 12:34:43;;;;;;;6.07;2.17;;;16.60;42.60;;;;;;6068205;23;20017;-74
2021/03/31 12:37:10;;;;;;;6.20;2.20;;;16.60;44.00;;;;;;6053665;23;20011;-73
2021/03/31 12:39:36;;;;;;;6.15;2.10;;;16.60;45.30;;;;;;6067072;23;20378;-73
2021/03/31 12:42:02;;;;;;;5.25;1.95;;;16.60;45.10;;;;;;6067950;23;20042;-73
2021/03/31 12:44:28;;;;;;;6.97;2.40;;;16.80;44.60;;;;;;6068418;23;20010;-73
2021/03/31 12:46:54;;;;;;;7.90;2.75;;;16.70;44.80;;;;;;6043680;23;20495;-73
2021/03/31 12:49:20;;;;;;;15.98;2.50;;;16.70;45.80;;;;;;6068582;23;20003;-73
2021/03/31 12:51:47;;;;;;;13.85;3.00;;;16.90;45.10;;;;;;6067595;23;20013;-73
2021/03/31 12:56:52;;;;;;;4.10;2.15;;;17.00;44.00;;;;;;6054407;23;20416;-73
2021/03/31 12:59:18;;;;;;;5.72;2.33;;;17.10;42.70;;;;;;6040091;23;20007;-73
2021/03/31 13:01:44;;;;;;;7.45;2.30;;;17.10;44.30;;;;;;6013666;23;20007;-73
2021/03/31 13:04:11;;;;;;;9.20;2.67;;;17.00;46.50;;;;;;6037008;23;20018;-73
2021/03/31 13:06:38;;;;;;;8.45;2.40;;;17.00;44.80;;;;;;6037347;23;20040;-73
2021/03/31 13:09:05;;;;;;;8.75;2.30;;;16.90;46.20;;;;;;6036971;23;20004;-73
2021/03/31 13:11:31;;;;;;;7.70;3.13;;;17.00;47.10;;;;;;6039588;23;20007;-73
2021/03/31 13:24:43;;;;;;;8.30;3.03;;;17.10;46.00;;;;;;6039541;23;20102;-73
2021/03/31 13:27:17;;;;;;;17.90;4.78;;;17.10;46.50;;;;;;6040186;23;20064;-74
2021/03/31 13:35:07;;;;;;;14.57;2.50;;;17.20;46.90;;;;;;6040372;23;20015;-71
2021/03/31 13:37:41;;;;;;;8.77;3.40;;;17.10;44.80;;;;;;6040362;23;20420;-73
2021/03/31 13:40:09;;;;;;;9.90;3.38;;;17.10;45.40;;;;;;6039256;23;20033;-73
2021/03/31 13:42:36;;;;;;;6.53;2.35;;;17.00;44.80;;;;;;6039761;23;20424;-73
2021/03/31 13:45:02;;;;;;;8.02;3.00;;;16.80;44.00;;;;;;6039605;23;20454;-73
2021/03/31 13:47:32;;;;;;;4.50;2.35;;;17.20;44.90;;;;;;6040120;23;20079;-73
2021/03/31 13:50:02;;;;;;;5.80;2.10;;;17.00;41.80;;;;;;6040037;23;20003;-73
2021/03/31 13:52:31;;;;;;;5.43;2.45;;;16.70;43.40;;;;;;6039680;23;20007;-73
2021/03/31 13:55:01;;;;;;;7.65;3.05;;;16.70;43.20;;;;;;6039634;23;20078;-73
2021/03/31 13:57:32;;;;;;;4.72;2.40;;;16.80;43.60;;;;;;6061974;23;20027;-73
2021/03/31 13:59:57;;;;;;;;;;;16.80;43.00;;;;;;6068783;23;20011;-72
2021/03/31 14:02:23;;;;;;;7.95;3.05;;;16.80;44.60;;;;;;6068670;23;19912;-73
2021/03/31 14:04:49;;;;;;;7.35;2.88;;;16.90;43.80;;;;;;6068729;23;20015;-72
2021/03/31 14:07:17;;;;;;;5.65;3.22;;;16.90;43.00;;;;;;6067728;23;20511;-73
2021/03/31 14:09:42;;;;;;;11.60;2.75;;;16.90;42.70;;;;;;6066264;23;20014;-73
2021/03/31 14:12:09;;;;;;;10.57;3.47;;;16.90;43.60;;;;;;6067034;23;20003;-73
2021/03/31 14:14:35;;;;;;;14.82;2.83;;;16.80;44.50;;;;;;6067933;23;20011;-73
2021/03/31 14:17:08;;;;;;;6.18;2.22;;;16.70;43.80;;;;;;6043073;23;20010;-73
2021/03/31 14:19:40;;;;;;;9.50;3.05;;;16.70;43.10;;;;;;6068279;23;20002;-72
2021/03/31 14:22:07;;;;;;;4.18;1.90;;;16.80;44.40;;;;;;6068490;23;20014;-72
2021/03/31 14:24:33;;;;;;;6.40;2.63;;;16.70;43.90;;;;;;6067216;23;20447;-73
2021/03/31 14:26:59;;;;;;;7.97;2.83;;;16.60;44.50;;;;;;6042376;23;20010;-73
2021/03/31 14:29:25;;;;;;;7.43;2.13;;;16.60;45.00;;;;;;6068166;23;20224;-73
2021/03/31 14:31:51;;;;;;;6.05;2.47;;;16.60;45.50;;;;;;6068104;23;20003;-73
2021/03/31 14:34:17;;;;;;;7.22;2.17;;;16.60;45.70;;;;;;6068428;23;20018;-73
2021/03/31 14:36:43;;;;;;;4.85;2.22;;;16.50;46.90;;;;;;6068265;23;20086;-73
2021/03/31 14:39:14;;;;;;;6.22;2.05;;;16.60;45.60;;;;;;6068823;23;20055;-73
2021/03/31 14:41:41;;;;;;;9.45;2.17;;;16.50;47.00;;;;;;6068290;23;20129;-73
2021/03/31 14:44:07;;;;;;;7.68;2.33;;;16.60;46.60;;;;;;6067988;23;20094;-73
2021/03/31 14:46:33;;;;;;;3.97;2.40;;;16.70;45.80;;;;;;6068659;23;20007;-73
2021/03/31 14:49:00;;;;;;;4.68;2.58;;;16.60;44.20;;;;;;6068192;23;20127;-73
2021/03/31 14:51:31;;;;;;;10.20;2.88;;;16.70;44.60;;;;;;6068521;23;20035;-73
2021/03/31 14:57:15;;;;;;;9.77;2.08;;;16.60;44.60;;;;;;5991839;23;20025;-73
2021/03/31 14:59:44;;;;;;;10.68;2.60;;;16.60;47.20;;;;;;5980291;24;20080;-73
2021/03/31 15:02:13;;;;;;;6.78;1.88;;;16.50;45.60;;;;;;6013416;23;20011;-73
2021/03/31 15:04:42;;;;;;;6.90;2.22;;;16.60;42.40;;;;;;6037991;23;20011;-74
2021/03/31 15:07:09;;;;;;;6.22;2.33;;;16.50;45.60;;;;;;6013700;23;20014;-73
2021/03/31 15:09:36;;;;;;;11.10;2.25;;;16.30;46.40;;;;;;6039100;23;20059;-73
2021/03/31 15:12:02;;;;;;;11.63;2.47;;;16.40;46.50;;;;;;6039108;23;20011;-74
2021/03/31 15:14:29;;;;;;;9.35;2.42;;;16.40;47.70;;;;;;6014307;23;20008;-73
2021/03/31 15:16:56;;;;;;;6.95;2.40;;;16.40;47.10;;;;;;6039754;23;20063;-74
2021/03/31 15:24:35;;;;;;;7.20;2.08;;;16.40;47.00;;;;;;6038745;23;20041;-73
2021/03/31 15:27:03;;;;;;;8.32;1.92;;;16.20;47.40;;;;;;6035720;23;20008;-74
2021/03/31 15:29:29;;;;;;;8.05;2.17;;;16.20;47.30;;;;;;6039057;23;20074;-73